Time;durP1;ratioP1;P1;durP2;ratioP2;P2;SDS_P1;SDS_P2;PMS_P1;PMS_P2;Temp;Humidity;BMP_temperature;BMP_pressure;BME280_temperature;BME280_humidity;BME280_pressure;Samples;Min_cycle;Max_cycle;Signal;HPM_P1;HPM_P2
2023/08/29 00:00:03;;;;;;;6.25;2.75;;;14.10;99.90;;;;;;5065079;28;20124;-65
2023/08/29 00:02:31;;;;;;;6.43;2.78;;;14.10;99.90;;;;;;5066274;28;20052;-62
2023/08/29 00:04:58;;;;;;;10.55;2.97;;;14.10;99.90;;;;;;5059815;28;20045;-65
2023/08/29 00:07:23;;;;;;;8.10;3.42;;;14.10;99.90;;;;;;5059536;28;20025;-65
2023/08/29 00:09:49;;;;;;;7.18;2.95;;;14.10;99.90;;;;;;5066407;28;20381;-67
2023/08/29 00:12:15;;;;;;;6.72;3.38;;;14.10;99.90;;;;;;5067530;28;20098;-64
2023/08/29 00:14:40;;;;;;;5.70;3.00;;;14.00;99.90;;;;;;5060234;28;20123;-63
2023/08/29 00:17:07;;;;;;;7.47;3.13;;;14.00;99.90;;;;;;5046720;28;20040;-63
2023/08/29 00:19:33;;;;;;;7.22;3.05;;;13.90;99.90;;;;;;5047585;28;20051;-63
2023/08/29 00:22:01;;;;;;;6.20;3.08;;;13.80;99.90;;;;;;5059946;28;20239;-62
2023/08/29 00:24:28;;;;;;;14.73;3.88;;;13.80;99.90;;;;;;5065969;28;20044;-64
2023/08/29 00:26:53;;;;;;;7.85;3.17;;;13.70;99.90;;;;;;5066642;28;20048;-63
2023/08/29 00:29:19;;;;;;;8.63;3.03;;;13.60;99.90;;;;;;5050280;28;20038;-64
2023/08/29 00:31:44;;;;;;;5.65;2.60;;;13.60;99.90;;;;;;5043101;28;20040;-63
2023/08/29 00:34:10;;;;;;;8.02;2.95;;;13.50;99.90;;;;;;5054897;28;20037;-64
2023/08/29 00:36:35;;;;;;;8.75;3.08;;;13.40;99.90;;;;;;5064483;28;20048;-66
2023/08/29 00:39:01;;;;;;;8.43;3.92;;;13.30;99.90;;;;;;5066629;28;20127;-65
2023/08/29 00:41:27;;;;;;;8.48;4.07;;;13.30;99.90;;;;;;5065231;28;20044;-65
2023/08/29 00:43:53;;;;;;;8.23;4.32;;;13.20;99.90;;;;;;5065883;28;20504;-66
2023/08/29 00:46:20;;;;;;;7.55;3.85;;;13.20;99.90;;;;;;5067167;28;20072;-65
2023/08/29 00:48:46;;;;;;;7.40;4.25;;;13.10;99.90;;;;;;5066094;28;20079;-65
2023/08/29 00:51:11;;;;;;;10.73;4.28;;;13.10;99.90;;;;;;5050393;28;20068;-66
2023/08/29 00:53:37;;;;;;;8.98;4.30;;;13.10;99.90;;;;;;5029084;28;20068;-65
2023/08/29 00:56:04;;;;;;;9.57;4.43;;;13.10;99.90;;;;;;5044680;28;20047;-66
2023/08/29 00:58:31;;;;;;;8.68;4.22;;;13.00;99.90;;;;;;5046680;28;20060;-65
2023/08/29 01:00:57;;;;;;;8.48;4.45;;;12.90;99.90;;;;;;5045912;28;20548;-63
2023/08/29 01:03:23;;;;;;;8.55;3.80;;;12.90;99.90;;;;;;5051294;28;20136;-65
2023/08/29 01:05:48;;;;;;;8.07;4.10;;;12.90;99.90;;;;;;5062756;28;20036;-65
2023/08/29 01:08:14;;;;;;;9.40;4.22;;;12.90;99.90;;;;;;5047558;28;20029;-63
2023/08/29 01:10:52;;;;;;;8.95;3.63;;;12.90;99.90;;;;;;5043477;28;20044;-65
2023/08/29 01:13:44;;;;;;;7.38;3.90;;;12.90;99.90;;;;;;5067438;28;20044;-64
2023/08/29 01:16:10;;;;;;;7.82;4.10;;;12.90;99.90;;;;;;5054698;28;20102;-65
2023/08/29 01:18:38;;;;;;;8.32;4.05;;;12.80;99.90;;;;;;5029830;28;20055;-64
2023/08/29 01:21:17;;;;;;;6.18;3.40;;;12.80;99.90;;;;;;5053826;28;20093;-64
2023/08/29 01:24:01;;;;;;;8.82;3.38;;;12.80;99.90;;;;;;5065486;28;20057;-64
2023/08/29 01:26:28;;;;;;;9.77;3.90;;;12.70;99.90;;;;;;5020736;28;20507;-64
2023/08/29 01:28:55;;;;;;;7.60;3.80;;;12.60;99.90;;;;;;5066691;28;20585;-63
2023/08/29 01:31:21;;;;;;;7.80;4.30;;;12.70;99.90;;;;;;5064642;28;20648;-64
2023/08/29 01:33:47;;;;;;;9.85;4.65;;;12.70;99.90;;;;;;5008298;28;20045;-65
2023/08/29 01:36:13;;;;;;;8.73;4.43;;;12.60;99.90;;;;;;5045750;28;20063;-65
2023/08/29 01:38:38;;;;;;;10.75;3.80;;;12.60;99.90;;;;;;5040635;28;20040;-64
2023/08/29 01:41:04;;;;;;;7.30;3.90;;;12.60;99.90;;;;;;5063448;28;20072;-63
2023/08/29 01:43:30;;;;;;;7.47;4.20;;;12.50;99.90;;;;;;5065865;28;20041;-65
2023/08/29 01:45:55;;;;;;;7.20;3.13;;;12.50;99.90;;;;;;5066487;28;20251;-64
2023/08/29 01:48:21;;;;;;;7.70;3.45;;;12.50;99.90;;;;;;5056919;28;20381;-64
2023/08/29 01:50:48;;;;;;;8.23;3.30;;;12.50;99.90;;;;;;5028225;28;20033;-66
2023/08/29 01:53:14;;;;;;;6.18;3.17;;;12.40;99.90;;;;;;5045617;28;20115;-63
2023/08/29 01:55:40;;;;;;;6.40;3.70;;;12.40;99.90;;;;;;5044166;28;20515;-65
2023/08/29 01:58:07;;;;;;;7.32;3.83;;;12.40;99.90;;;;;;5044930;28;20388;-64
2023/08/29 02:00:33;;;;;;;10.88;4.22;;;12.40;99.90;;;;;;5045374;28;20076;-64
2023/08/29 02:02:59;;;;;;;11.50;4.78;;;12.30;99.90;;;;;;5045426;28;20053;-66
2023/08/29 02:05:25;;;;;;;9.20;4.95;;;12.30;99.90;;;;;;5054925;28;20041;-65
2023/08/29 02:07:50;;;;;;;10.68;4.78;;;12.30;99.90;;;;;;5048008;28;20044;-64
2023/08/29 02:10:16;;;;;;;8.10;4.75;;;12.30;99.90;;;;;;5062713;28;20047;-64
2023/08/29 02:12:42;;;;;;;8.55;4.85;;;12.30;99.90;;;;;;5065742;28;20411;-65
2023/08/29 02:15:09;;;;;;;11.15;5.55;;;12.20;99.90;;;;;;5059557;28;20051;-63
2023/08/29 02:17:36;;;;;;;12.93;5.20;;;12.20;99.90;;;;;;5063252;28;20055;-65
2023/08/29 02:20:04;;;;;;;9.38;4.97;;;12.20;99.90;;;;;;5048639;28;20044;-64
2023/08/29 02:22:30;;;;;;;8.63;4.85;;;12.20;99.90;;;;;;5044936;28;20051;-64
2023/08/29 02:24:56;;;;;;;10.57;5.38;;;12.20;99.90;;;;;;5043122;28;20044;-64
2023/08/29 02:27:22;;;;;;;10.73;5.70;;;12.20;99.90;;;;;;5027246;28;20049;-63
2023/08/29 02:29:47;;;;;;;8.38;3.42;;;12.20;99.90;;;;;;5044524;28;20147;-64
2023/08/29 02:32:14;;;;;;;5.32;2.55;;;12.20;99.90;;;;;;5037470;28;20044;-65
2023/08/29 02:34:39;;;;;;;5.97;2.40;;;12.10;99.90;;;;;;5029407;28;20045;-65
2023/08/29 02:37:05;;;;;;;6.60;2.20;;;12.00;99.90;;;;;;5047521;28;20037;-64
2023/08/29 02:39:31;;;;;;;10.80;4.07;;;12.00;99.90;;;;;;5044098;28;20045;-67
2023/08/29 02:41:57;;;;;;;13.65;6.05;;;11.90;99.90;;;;;;5043085;28;20060;-65
2023/08/29 02:44:23;;;;;;;8.13;4.10;;;12.00;99.90;;;;;;5056921;28;20806;-64
2023/08/29 02:46:48;;;;;;;5.68;2.47;;;12.00;99.90;;;;;;5063735;28;20136;-64
2023/08/29 02:49:14;;;;;;;6.95;3.17;;;11.90;99.90;;;;;;5063575;28;20590;-67
2023/08/29 02:51:39;;;;;;;5.65;3.10;;;11.80;99.90;;;;;;5048900;28;20067;-64
2023/08/29 02:54:05;;;;;;;10.02;3.72;;;11.70;99.90;;;;;;5044752;28;20071;-66
2023/08/29 02:56:30;;;;;;;5.00;2.53;;;11.70;99.90;;;;;;5042789;28;20040;-65
2023/08/29 02:58:56;;;;;;;10.50;2.90;;;11.70;99.90;;;;;;5044351;28;20531;-68
2023/08/29 03:01:22;;;;;;;7.90;3.67;;;11.60;99.90;;;;;;5063404;28;20036;-64
2023/08/29 03:03:48;;;;;;;9.65;5.00;;;11.50;99.90;;;;;;5062510;28;20087;-63
2023/08/29 03:06:13;;;;;;;8.85;4.20;;;11.40;99.90;;;;;;5043001;28;20045;-63
2023/08/29 03:08:39;;;;;;;8.50;5.22;;;11.50;99.90;;;;;;5063396;28;20080;-65
2023/08/29 03:11:04;;;;;;;9.73;5.82;;;11.50;99.90;;;;;;5057122;28;20119;-63
2023/08/29 03:13:30;;;;;;;10.23;5.82;;;11.60;99.90;;;;;;5063164;28;20048;-65
2023/08/29 03:15:57;;;;;;;10.82;6.50;;;11.60;99.90;;;;;;5049886;28;20044;-65
2023/08/29 03:18:23;;;;;;;9.75;6.65;;;11.60;99.90;;;;;;5026698;28;20583;-65
2023/08/29 03:20:48;;;;;;;9.82;6.30;;;11.60;99.90;;;;;;5047257;28;20040;-65
2023/08/29 03:23:14;;;;;;;11.95;6.65;;;11.60;99.90;;;;;;5064534;28;20072;-66
2023/08/29 03:25:40;;;;;;;10.07;6.57;;;11.70;99.90;;;;;;5054918;28;20484;-67
2023/08/29 03:28:05;;;;;;;11.02;6.35;;;11.70;99.90;;;;;;5040119;28;20467;-65
2023/08/29 03:30:31;;;;;;;8.57;5.38;;;11.70;99.90;;;;;;5047963;28;20048;-66
2023/08/29 03:32:57;;;;;;;11.13;6.00;;;11.70;99.90;;;;;;5046964;28;20056;-65
2023/08/29 03:35:23;;;;;;;9.95;6.68;;;11.70;99.90;;;;;;5060891;28;20274;-65
2023/08/29 03:37:49;;;;;;;12.65;6.22;;;11.70;99.90;;;;;;5047068;28;20045;-65
2023/08/29 03:40:15;;;;;;;10.25;6.28;;;11.70;99.90;;;;;;5046618;28;20515;-65
2023/08/29 03:42:40;;;;;;;13.70;6.82;;;11.70;99.90;;;;;;5048209;28;20358;-65
2023/08/29 03:45:07;;;;;;;11.07;6.40;;;11.70;99.90;;;;;;5046885;28;20056;-66
2023/08/29 03:47:34;;;;;;;12.50;6.22;;;11.70;99.90;;;;;;5046406;28;20045;-67
2023/08/29 03:50:00;;;;;;;11.50;6.80;;;11.70;99.90;;;;;;5084675;28;20052;-67
2023/08/29 03:52:26;;;;;;;12.52;6.43;;;11.70;99.90;;;;;;5064846;28;20444;-65
2023/08/29 03:54:53;;;;;;;11.60;6.60;;;11.70;99.90;;;;;;5065896;28;20048;-67
2023/08/29 03:57:20;;;;;;;11.15;6.43;;;11.70;99.90;;;;;;5067932;28;20610;-66
2023/08/29 03:59:46;;;;;;;11.65;6.35;;;11.70;99.90;;;;;;5065283;28;20045;-68
2023/08/29 04:02:11;;;;;;;13.63;6.07;;;11.70;99.90;;;;;;5066618;28;20598;-67
2023/08/29 04:04:37;;;;;;;10.20;6.25;;;11.70;99.90;;;;;;5064598;28;20145;-65
2023/08/29 04:07:04;;;;;;;9.85;6.22;;;11.70;99.90;;;;;;5046771;28;20037;-65
2023/08/29 04:09:30;;;;;;;13.45;5.93;;;11.70;99.90;;;;;;5029976;28;20121;-67
2023/08/29 04:11:56;;;;;;;10.82;5.65;;;11.70;99.90;;;;;;5045958;28;20507;-65
2023/08/29 04:14:22;;;;;;;8.52;5.25;;;11.60;99.90;;;;;;5046161;28;20045;-63
2023/08/29 04:16:48;;;;;;;9.38;5.43;;;11.60;99.90;;;;;;5046885;28;20436;-63
2023/08/29 04:19:14;;;;;;;9.55;5.22;;;11.50;99.90;;;;;;5046183;28;20041;-64
2023/08/29 04:21:40;;;;;;;9.07;5.22;;;11.40;99.90;;;;;;5056367;28;20036;-65
2023/08/29 04:24:06;;;;;;;10.38;4.05;;;11.40;99.90;;;;;;5067702;28;20442;-63
2023/08/29 04:26:32;;;;;;;9.85;4.53;;;11.30;99.90;;;;;;5063148;28;20135;-64
2023/08/29 04:28:58;;;;;;;11.05;5.20;;;11.20;99.90;;;;;;5067598;28;20047;-66
2023/08/29 04:31:24;;;;;;;12.60;6.13;;;11.10;99.90;;;;;;5066544;28;20450;-62
2023/08/29 04:33:50;;;;;;;10.05;5.00;;;11.10;99.90;;;;;;5051140;28;20455;-63
2023/08/29 04:36:19;;;;;;;11.63;5.15;;;11.00;99.90;;;;;;5052515;28;20778;-67
2023/08/29 04:38:47;;;;;;;12.75;6.18;;;11.10;99.90;;;;;;5046311;28;20142;-65
2023/08/29 04:41:13;;;;;;;11.02;6.53;;;11.10;99.90;;;;;;5054860;28;20059;-66
2023/08/29 04:43:39;;;;;;;11.82;6.82;;;11.10;99.90;;;;;;5048920;28;20126;-68
2023/08/29 04:46:07;;;;;;;13.45;7.03;;;11.10;99.90;;;;;;5055974;28;20961;-66
2023/08/29 04:48:36;;;;;;;12.65;6.82;;;11.10;99.90;;;;;;5045666;28;20508;-64
2023/08/29 04:51:03;;;;;;;11.00;6.70;;;11.20;99.90;;;;;;5052252;28;20119;-64
2023/08/29 04:53:28;;;;;;;15.55;6.90;;;11.20;99.90;;;;;;5065689;28;20044;-65
2023/08/29 04:56:02;;;;;;;10.55;6.00;;;11.30;99.90;;;;;;5063377;28;20037;-64
2023/08/29 04:58:28;;;;;;;11.57;6.40;;;11.30;99.90;;;;;;5046028;28;20044;-65
2023/08/29 05:00:54;;;;;;;10.40;5.47;;;11.40;99.90;;;;;;5047391;28;20594;-64
2023/08/29 05:03:21;;;;;;;9.10;5.80;;;11.40;99.90;;;;;;5044964;28;20064;-63
2023/08/29 05:05:47;;;;;;;9.20;5.53;;;11.40;99.90;;;;;;5049764;28;20424;-65
2023/08/29 05:08:12;;;;;;;11.57;5.80;;;11.40;99.90;;;;;;5079139;28;20045;-66
2023/08/29 05:10:38;;;;;;;11.75;5.70;;;11.50;99.90;;;;;;5044833;28;20040;-63
2023/08/29 05:13:04;;;;;;;10.63;5.22;;;11.40;99.90;;;;;;5061586;28;20044;-63
2023/08/29 05:15:32;;;;;;;12.40;5.72;;;11.40;99.90;;;;;;5063696;28;20504;-65
2023/08/29 05:17:57;;;;;;;13.32;6.47;;;11.50;99.90;;;;;;5065061;28;20048;-64
2023/08/29 05:20:23;;;;;;;13.20;6.78;;;11.60;99.90;;;;;;5056641;28;20531;-64
2023/08/29 05:22:49;;;;;;;13.30;8.15;;;11.60;99.90;;;;;;5045402;28;20210;-65
2023/08/29 05:25:15;;;;;;;11.50;6.13;;;11.80;99.90;;;;;;5041762;28;20051;-66
2023/08/29 05:27:40;;;;;;;9.68;3.80;;;12.00;99.90;;;;;;5042887;28;20048;-64
2023/08/29 05:30:07;;;;;;;8.52;4.38;;;12.20;99.90;;;;;;5090260;28;20036;-68
2023/08/29 05:32:33;;;;;;;5.88;3.55;;;12.30;99.90;;;;;;5045529;28;20613;-62
2023/08/29 05:34:59;;;;;;;5.32;2.78;;;12.40;99.90;;;;;;5040326;28;20040;-63
2023/08/29 05:37:25;;;;;;;5.80;3.20;;;12.40;99.90;;;;;;5046214;28;20056;-65
2023/08/29 05:39:53;;;;;;;8.25;3.38;;;12.40;99.90;;;;;;5028369;28;20556;-63
2023/08/29 05:42:18;;;;;;;7.10;2.60;;;12.50;99.90;;;;;;5044767;28;20053;-65
2023/08/29 05:44:44;;;;;;;6.82;2.88;;;12.50;99.90;;;;;;5027577;28;20091;-64
2023/08/29 05:47:10;;;;;;;6.75;3.45;;;12.40;99.90;;;;;;5045108;28;20048;-64
2023/08/29 05:49:35;;;;;;;8.50;3.53;;;12.40;99.90;;;;;;5041061;28;20048;-65
2023/08/29 05:52:01;;;;;;;9.57;4.68;;;12.30;99.90;;;;;;5047694;28;20074;-65
2023/08/29 05:54:27;;;;;;;7.72;4.70;;;12.30;99.90;;;;;;5025853;28;20071;-67
2023/08/29 05:56:52;;;;;;;9.63;4.88;;;12.30;99.90;;;;;;5025208;28;20047;-64
2023/08/29 05:59:18;;;;;;;10.18;5.40;;;12.30;99.90;;;;;;5043711;28;20076;-67
2023/08/29 06:01:43;;;;;;;8.65;5.15;;;12.30;99.90;;;;;;5044887;28;20554;-64
2023/08/29 06:04:09;;;;;;;7.93;4.75;;;12.40;99.90;;;;;;5043782;28;20390;-64
2023/08/29 06:06:35;;;;;;;9.77;5.28;;;12.40;99.90;;;;;;5047015;28;20047;-61
2023/08/29 06:09:02;;;;;;;7.30;4.03;;;12.40;99.90;;;;;;5027518;28;20556;-63
2023/08/29 06:11:29;;;;;;;8.15;5.00;;;12.50;99.90;;;;;;5054801;28;20040;-64
2023/08/29 06:13:54;;;;;;;8.77;4.90;;;12.50;99.90;;;;;;5027048;28;20286;-64
2023/08/29 06:16:20;;;;;;;11.48;5.80;;;12.60;99.90;;;;;;5043471;28;20043;-65
2023/08/29 06:18:47;;;;;;;10.15;5.40;;;12.70;99.90;;;;;;5028504;28;20072;-65
2023/08/29 06:21:12;;;;;;;11.30;5.95;;;12.80;99.90;;;;;;5043630;28;20053;-64
2023/08/29 06:23:38;;;;;;;9.82;5.43;;;12.90;99.90;;;;;;5043359;28;20196;-65
2023/08/29 06:26:04;;;;;;;11.23;5.78;;;13.10;99.90;;;;;;5043744;28;20056;-65
2023/08/29 06:28:31;;;;;;;10.50;5.65;;;13.30;99.90;;;;;;5042745;28;20109;-66
2023/08/29 06:31:02;;;;;;;12.65;5.53;;;13.50;99.90;;;;;;5075985;28;20691;-66
2023/08/29 06:33:28;;;;;;;10.48;5.35;;;13.60;99.90;;;;;;5029111;28;20048;-65
2023/08/29 06:35:53;;;;;;;7.82;4.82;;;13.80;99.90;;;;;;5026357;28;20040;-66
2023/08/29 06:38:19;;;;;;;9.55;4.85;;;13.90;99.90;;;;;;5043647;28;20049;-67
2023/08/29 06:40:45;;;;;;;8.52;4.35;;;14.10;99.90;;;;;;5056958;28;20047;-66
2023/08/29 06:43:11;;;;;;;9.85;4.43;;;14.20;99.90;;;;;;5064655;28;20041;-66
2023/08/29 06:45:36;;;;;;;9.15;4.22;;;14.40;99.90;;;;;;5063452;28;20041;-65
2023/08/29 06:48:02;;;;;;;9.60;3.88;;;14.60;99.90;;;;;;5048188;28;20099;-64
2023/08/29 06:50:28;;;;;;;7.20;2.63;;;14.80;99.90;;;;;;5049451;28;20466;-65
2023/08/29 06:52:53;;;;;;;6.30;3.25;;;15.00;99.90;;;;;;5027291;28;20033;-64
2023/08/29 06:55:19;;;;;;;7.10;3.00;;;15.10;99.90;;;;;;5042903;28;20120;-63
2023/08/29 06:57:44;;;;;;;6.50;2.90;;;15.20;99.90;;;;;;5093279;28;20475;-65
2023/08/29 07:00:11;;;;;;;5.75;2.45;;;15.40;99.90;;;;;;5063960;28;20135;-65
2023/08/29 07:02:37;;;;;;;7.30;2.38;;;15.60;99.90;;;;;;5064173;28;20131;-64
2023/08/29 07:05:03;;;;;;;9.02;2.33;;;15.80;99.90;;;;;;5059201;28;20136;-65
2023/08/29 07:07:28;;;;;;;5.22;2.15;;;16.00;99.90;;;;;;5060247;28;20037;-66
2023/08/29 07:09:54;;;;;;;5.90;2.20;;;16.20;99.90;;;;;;5064460;28;20447;-66
2023/08/29 07:12:20;;;;;;;7.55;2.85;;;16.40;99.90;;;;;;5053771;28;20047;-64
2023/08/29 07:14:45;;;;;;;6.88;2.00;;;16.50;99.90;;;;;;5076644;28;20077;-64
2023/08/29 07:17:11;;;;;;;6.53;1.85;;;16.70;99.90;;;;;;5043451;28;20114;-65
2023/08/29 07:19:38;;;;;;;5.22;1.63;;;16.90;99.90;;;;;;5043312;28;20052;-64
2023/08/29 07:22:04;;;;;;;5.25;1.60;;;17.00;99.90;;;;;;5061098;28;20233;-65
2023/08/29 07:24:33;;;;;;;4.90;1.70;;;17.10;99.90;;;;;;5063697;28;20044;-66
2023/08/29 07:26:58;;;;;;;4.00;1.48;;;17.20;99.90;;;;;;5062477;28;20068;-65
2023/08/29 07:29:24;;;;;;;4.40;1.60;;;17.30;99.90;;;;;;5063733;28;20609;-64
2023/08/29 07:31:49;;;;;;;10.40;1.58;;;17.40;99.90;;;;;;5049835;28;20061;-63
2023/08/29 07:34:16;;;;;;;2.85;1.27;;;17.40;99.90;;;;;;5044063;28;20127;-64
2023/08/29 07:36:42;;;;;;;5.05;1.25;;;17.40;99.90;;;;;;5047445;28;20124;-65
2023/08/29 07:39:07;;;;;;;3.88;1.30;;;17.50;99.90;;;;;;5044914;28;20463;-64
2023/08/29 07:41:33;;;;;;;4.05;1.27;;;17.60;99.90;;;;;;5042419;28;20047;-65
2023/08/29 07:43:58;;;;;;;3.28;1.42;;;17.60;99.90;;;;;;5042725;28;20043;-64
2023/08/29 07:46:24;;;;;;;3.65;1.40;;;17.60;99.90;;;;;;5042361;28;20045;-62
2023/08/29 07:48:50;;;;;;;3.97;1.20;;;17.70;99.90;;;;;;5042944;28;20044;-63
2023/08/29 07:51:16;;;;;;;4.95;1.00;;;17.70;99.90;;;;;;5049329;28;20048;-64
2023/08/29 07:53:41;;;;;;;5.32;1.50;;;17.70;99.90;;;;;;5064348;28;20043;-64
2023/08/29 07:56:07;;;;;;;5.47;1.48;;;17.60;99.90;;;;;;5063928;28;20048;-64
2023/08/29 07:58:33;;;;;;;5.82;1.48;;;17.60;99.90;;;;;;5051517;28;20084;-64
2023/08/29 08:00:59;;;;;;;3.65;1.15;;;17.60;99.90;;;;;;5042133;28;20087;-64
2023/08/29 08:03:25;;;;;;;4.88;1.30;;;17.70;99.90;;;;;;5050123;28;20114;-65
2023/08/29 08:05:50;;;;;;;3.65;0.95;;;17.70;99.90;;;;;;5041878;28;20049;-66
2023/08/29 08:08:16;;;;;;;3.08;1.00;;;17.60;99.90;;;;;;5042636;28;20036;-64
2023/08/29 08:10:42;;;;;;;5.03;1.17;;;17.60;99.90;;;;;;5043643;28;20116;-66
2023/08/29 08:13:07;;;;;;;3.95;1.00;;;17.60;99.90;;;;;;5037675;28;20045;-64
2023/08/29 08:15:33;;;;;;;5.93;1.52;;;17.60;99.90;;;;;;5039874;28;20040;-63
2023/08/29 08:17:59;;;;;;;4.88;1.58;;;17.60;99.90;;;;;;5040443;28;20041;-66
2023/08/29 08:20:24;;;;;;;4.85;1.05;;;17.60;99.90;;;;;;5035526;28;20040;-65
2023/08/29 08:22:50;;;;;;;2.70;1.00;;;17.60;99.90;;;;;;5032910;28;21012;-66
2023/08/29 08:25:16;;;;;;;3.13;0.90;;;17.60;99.90;;;;;;5059238;28;20034;-64
2023/08/29 08:27:41;;;;;;;2.55;0.80;;;17.60;99.90;;;;;;5051483;28;20041;-65
2023/08/29 08:30:08;;;;;;;5.18;1.10;;;17.70;99.90;;;;;;5046840;28;20468;-64
2023/08/29 08:32:33;;;;;;;3.72;1.02;;;17.80;99.90;;;;;;5031527;28;20507;-63
2023/08/29 08:34:59;;;;;;;2.53;1.00;;;17.90;99.90;;;;;;5074928;28;20049;-62
2023/08/29 08:37:25;;;;;;;2.95;0.88;;;18.20;99.90;;;;;;5069624;28;20131;-64
2023/08/29 08:39:51;;;;;;;2.35;0.80;;;18.50;99.90;;;;;;5078401;28;20128;-65
2023/08/29 08:42:18;;;;;;;4.28;1.10;;;18.80;99.90;;;;;;5036273;28;20041;-62
2023/08/29 08:44:44;;;;;;;3.10;0.93;;;18.90;99.90;;;;;;5068923;28;20037;-63
2023/08/29 08:47:11;;;;;;;3.30;1.00;;;19.00;99.90;;;;;;5024847;28;20045;-63
2023/08/29 08:49:38;;;;;;;4.25;1.15;;;19.10;99.90;;;;;;5036108;28;20092;-63
2023/08/29 08:52:04;;;;;;;2.45;0.98;;;19.30;99.90;;;;;;5036133;28;20073;-67
2023/08/29 08:54:29;;;;;;;5.68;1.30;;;19.50;99.90;;;;;;5014572;28;20540;-65
2023/08/29 08:56:57;;;;;;;4.53;1.00;;;19.50;99.90;;;;;;5012515;28;20037;-66
2023/08/29 08:59:26;;;;;;;3.78;0.95;;;19.50;99.90;;;;;;5044322;28;20124;-63
2023/08/29 09:01:55;;;;;;;4.30;1.10;;;19.40;99.90;;;;;;5038201;28;20290;-64
2023/08/29 09:04:24;;;;;;;3.00;0.98;;;19.30;99.90;;;;;;5023282;28;20061;-66
2023/08/29 09:06:49;;;;;;;4.00;1.17;;;19.10;99.90;;;;;;5079787;28;20048;-63
2023/08/29 09:09:20;;;;;;;5.35;1.10;;;19.00;99.90;;;;;;5029365;28;20190;-64
2023/08/29 09:11:51;;;;;;;4.47;0.90;;;19.00;99.90;;;;;;5041521;28;20063;-65
2023/08/29 09:14:16;;;;;;;2.80;1.05;;;18.90;99.90;;;;;;5044167;28;20051;-66
2023/08/29 09:16:42;;;;;;;3.88;1.00;;;18.90;99.90;;;;;;5046153;28;20056;-63
2023/08/29 09:19:08;;;;;;;3.30;1.13;;;18.90;99.90;;;;;;5045951;28;20048;-60
2023/08/29 09:21:35;;;;;;;2.63;0.90;;;18.90;99.90;;;;;;5048556;28;20094;-64
2023/08/29 09:24:01;;;;;;;4.35;0.90;;;18.80;99.90;;;;;;5047808;28;20071;-63
2023/08/29 09:26:34;;;;;;;4.85;1.30;;;18.80;99.90;;;;;;5066011;28;20483;-63
2023/08/29 09:29:14;;;;;;;2.40;0.90;;;18.70;99.90;;;;;;5038017;28;20033;-66
2023/08/29 09:31:40;;;;;;;2.63;1.00;;;18.70;99.90;;;;;;5077558;28;20048;-64
2023/08/29 09:34:06;;;;;;;2.88;0.90;;;18.70;99.90;;;;;;5045766;28;20044;-66
2023/08/29 09:36:33;;;;;;;3.60;1.00;;;18.70;99.90;;;;;;5046711;28;20049;-66
2023/08/29 09:39:00;;;;;;;4.55;1.00;;;18.70;99.90;;;;;;5046532;28;20045;-64
2023/08/29 09:41:26;;;;;;;4.13;1.00;;;18.80;99.90;;;;;;5044314;28;20047;-67
2023/08/29 09:43:51;;;;;;;2.85;1.00;;;18.90;99.90;;;;;;5044470;28;20049;-62
2023/08/29 09:46:22;;;;;;;3.85;0.95;;;18.90;99.90;;;;;;5059712;28;20615;-64
2023/08/29 09:48:55;;;;;;;4.55;1.30;;;19.10;99.90;;;;;;5047742;28;20040;-64
2023/08/29 09:51:22;;;;;;;5.23;1.40;;;19.10;99.90;;;;;;5049687;28;20192;-64
2023/08/29 09:53:50;;;;;;;5.75;1.40;;;19.10;99.90;;;;;;5044582;28;20283;-64
2023/08/29 09:56:19;;;;;;;4.70;1.00;;;19.00;99.90;;;;;;5045271;28;20037;-64
2023/08/29 09:58:47;;;;;;;3.17;1.10;;;19.00;99.90;;;;;;5044378;28;20040;-64
2023/08/29 10:01:14;;;;;;;3.40;1.23;;;18.90;99.90;;;;;;5046070;28;20591;-65
2023/08/29 10:03:41;;;;;;;2.55;0.88;;;18.80;99.90;;;;;;5043423;28;20057;-64
2023/08/29 10:06:10;;;;;;;4.85;1.00;;;18.70;99.90;;;;;;5050482;28;20137;-65
2023/08/29 10:08:51;;;;;;;2.60;0.73;;;18.70;99.90;;;;;;5044405;28;20040;-64
2023/08/29 10:11:18;;;;;;;2.83;0.82;;;18.60;99.90;;;;;;5045170;28;20036;-63
2023/08/29 10:13:46;;;;;;;1.80;0.70;;;18.60;99.90;;;;;;5049258;28;20042;-64
2023/08/29 10:16:13;;;;;;;2.03;0.80;;;18.60;99.90;;;;;;5064569;28;20059;-67
2023/08/29 10:18:39;;;;;;;3.28;0.88;;;18.50;99.90;;;;;;5045532;28;20570;-65
2023/08/29 10:21:05;;;;;;;2.67;0.90;;;18.50;99.90;;;;;;5055966;28;20044;-63
2023/08/29 10:23:31;;;;;;;3.83;0.90;;;18.50;99.90;;;;;;5065373;28;20048;-65
2023/08/29 10:26:01;;;;;;;3.15;0.90;;;18.50;99.90;;;;;;5049830;28;20036;-64
2023/08/29 10:28:28;;;;;;;3.80;0.95;;;18.50;99.90;;;;;;5043946;28;20684;-63
2023/08/29 10:30:59;;;;;;;3.90;0.98;;;18.40;99.90;;;;;;5046434;28;20040;-64
2023/08/29 10:33:25;;;;;;;4.20;0.80;;;18.50;99.90;;;;;;5064805;28;20518;-63
2023/08/29 10:35:51;;;;;;;2.63;0.73;;;18.50;99.90;;;;;;5038993;28;20040;-64
2023/08/29 10:38:18;;;;;;;3.13;0.90;;;18.50;99.90;;;;;;5063691;28;20480;-62
2023/08/29 10:40:44;;;;;;;3.35;0.98;;;18.60;99.90;;;;;;5039059;28;20059;-63
2023/08/29 10:43:18;;;;;;;2.78;0.90;;;18.60;99.90;;;;;;5026354;28;20041;-65
2023/08/29 10:45:53;;;;;;;;;;;18.70;99.90;;;;;;5052505;28;20138;-63
2023/08/29 10:48:46;;;;;;;4.10;0.90;;;18.70;99.90;;;;;;5064079;28;19920;-64
2023/08/29 10:51:15;;;;;;;3.85;0.93;;;18.80;99.90;;;;;;5031737;28;20048;-63
2023/08/29 10:53:49;;;;;;;2.65;0.80;;;18.80;99.90;;;;;;5044123;28;20056;-62
2023/08/29 10:56:17;;;;;;;2.45;0.70;;;18.80;99.90;;;;;;5044037;28;20045;-65
2023/08/29 10:58:45;;;;;;;2.22;1.10;;;18.80;99.90;;;;;;5043824;28;20315;-63
2023/08/29 11:01:36;;;;;;;2.67;1.00;;;18.70;99.90;;;;;;5043768;28;20425;-66
2023/08/29 11:04:11;;;;;;;2.55;0.90;;;18.70;99.90;;;;;;5047257;28;20140;-64
2023/08/29 11:06:52;;;;;;;4.70;0.90;;;18.70;99.90;;;;;;5046405;28;20048;-64
2023/08/29 11:09:23;;;;;;;2.45;0.98;;;18.70;99.90;;;;;;5026668;28;20360;-64
2023/08/29 11:12:08;;;;;;;2.42;1.00;;;18.70;99.90;;;;;;5042742;28;20045;-63
2023/08/29 11:14:55;;;;;;;2.92;1.00;;;18.70;99.90;;;;;;5043498;28;20098;-64
2023/08/29 11:17:24;;;;;;;3.88;1.00;;;18.80;99.90;;;;;;5026506;28;20041;-63
2023/08/29 11:19:53;;;;;;;3.45;1.00;;;18.80;99.90;;;;;;5058930;28;20052;-63
2023/08/29 11:22:22;;;;;;;2.40;0.95;;;18.80;99.90;;;;;;5058397;28;20076;-63
2023/08/29 11:24:54;;;;;;;3.72;1.10;;;18.90;99.90;;;;;;5060789;28;20701;-62
2023/08/29 11:27:21;;;;;;;4.25;1.10;;;19.00;99.90;;;;;;5064387;28;20040;-65
2023/08/29 11:29:47;;;;;;;3.15;1.25;;;19.10;99.90;;;;;;5063678;28;20091;-61
2023/08/29 11:32:13;;;;;;;4.38;1.58;;;19.30;99.90;;;;;;5062775;28;20385;-65
2023/08/29 11:34:38;;;;;;;2.75;1.02;;;19.30;99.90;;;;;;5042578;28;20095;-67
2023/08/29 11:37:11;;;;;;;5.35;1.27;;;19.50;99.90;;;;;;5056825;28;20557;-64
2023/08/29 11:39:37;;;;;;;5.13;1.15;;;19.60;99.90;;;;;;5063079;28;20036;-63
2023/08/29 11:42:03;;;;;;;3.75;1.20;;;19.70;99.90;;;;;;5057125;28;20040;-65
2023/08/29 11:44:33;;;;;;;3.30;1.10;;;19.90;99.90;;;;;;5043028;28;20636;-63
2023/08/29 11:46:59;;;;;;;3.42;1.40;;;19.90;99.90;;;;;;5043458;28;20480;-63
2023/08/29 11:49:25;;;;;;;5.60;1.48;;;20.00;99.90;;;;;;5056304;28;20048;-65
2023/08/29 11:51:50;;;;;;;4.85;1.45;;;20.10;99.90;;;;;;5060691;28;20056;-63
2023/08/29 11:54:45;;;;;;;4.30;1.30;;;20.10;99.90;;;;;;5066881;28;20046;-65
2023/08/29 11:57:12;;;;;;;3.53;1.10;;;20.00;99.90;;;;;;5065557;28;20113;-65
2023/08/29 11:59:40;;;;;;;7.35;1.60;;;20.00;99.90;;;;;;5066945;28;20495;-63
2023/08/29 12:02:08;;;;;;;2.88;1.27;;;19.90;99.90;;;;;;5045451;28;20037;-64
2023/08/29 12:04:41;;;;;;;3.75;1.30;;;19.90;99.90;;;;;;5047382;28;20051;-63
2023/08/29 12:07:13;;;;;;;4.18;1.30;;;19.80;99.90;;;;;;5047817;28;20032;-63
2023/08/29 12:09:42;;;;;;;3.10;1.30;;;19.70;99.90;;;;;;5067699;28;20515;-65
2023/08/29 12:12:09;;;;;;;3.53;1.40;;;19.50;99.90;;;;;;5059137;28;20045;-65
2023/08/29 12:14:51;;;;;;;2.75;0.90;;;19.50;99.90;;;;;;5046322;28;20157;-64
2023/08/29 12:17:18;;;;;;;4.93;1.35;;;19.50;99.90;;;;;;5046292;28;20076;-64
2023/08/29 12:19:45;;;;;;;6.03;1.10;;;19.40;99.90;;;;;;5030002;28;20135;-63
2023/08/29 12:22:11;;;;;;;5.10;1.40;;;19.40;99.90;;;;;;5066283;28;20071;-64
2023/08/29 12:24:36;;;;;;;4.95;1.40;;;19.40;99.90;;;;;;5065494;28;20045;-64
2023/08/29 12:27:04;;;;;;;3.83;1.20;;;19.40;99.90;;;;;;5058191;28;20045;-67
2023/08/29 12:29:29;;;;;;;7.90;1.63;;;19.40;99.90;;;;;;5043855;28;20095;-64
2023/08/29 12:31:55;;;;;;;3.92;1.27;;;19.40;99.90;;;;;;5047357;28;20431;-63
2023/08/29 12:34:21;;;;;;;4.45;1.60;;;19.30;99.90;;;;;;5037000;28;20040;-65
2023/08/29 12:36:46;;;;;;;5.93;1.95;;;19.30;99.90;;;;;;5078396;28;20048;-62
2023/08/29 12:39:12;;;;;;;5.55;1.52;;;19.30;99.90;;;;;;5027713;28;20045;-63
2023/08/29 12:41:38;;;;;;;3.25;1.15;;;19.40;99.90;;;;;;5048654;28;20416;-64
2023/08/29 12:44:06;;;;;;;3.40;1.10;;;19.30;99.90;;;;;;5045250;28;20091;-62